Time;durP1;ratioP1;P1;durP2;ratioP2;P2;SDS_P1;SDS_P2;PMS_P1;PMS_P2;Temp;Humidity;BMP_temperature;BMP_pressure;BME280_temperature;BME280_humidity;BME280_pressure;Samples;Min_cycle;Max_cycle;Signal;HPM_P1;HPM_P2
2021/10/25 00:02:22;;;;;;;5.38;3.75;;;5.10;99.90;;;;;;5047882;28;20059;-86
2021/10/25 00:04:49;;;;;;;4.40;3.10;;;5.10;99.90;;;;;;5052642;28;20036;-87
2021/10/25 00:07:19;;;;;;;5.50;3.58;;;5.00;99.90;;;;;;5081034;27;20044;-87
2021/10/25 00:09:46;;;;;;;6.18;3.10;;;5.00;99.90;;;;;;5047504;28;20484;-86
2021/10/25 00:12:12;;;;;;;5.07;3.03;;;5.00;99.90;;;;;;5078068;27;20028;-84
2021/10/25 00:14:40;;;;;;;5.35;3.13;;;4.90;99.90;;;;;;5091774;27;20381;-78
2021/10/25 00:17:06;;;;;;;4.63;2.93;;;4.90;99.90;;;;;;5053748;28;20031;-77
2021/10/25 00:19:44;;;;;;;4.38;2.90;;;4.90;99.90;;;;;;5080266;27;20502;-85
2021/10/25 00:22:10;;;;;;;5.32;2.88;;;4.90;99.90;;;;;;5063713;27;20043;-81
2021/10/25 00:24:37;;;;;;;4.88;3.13;;;4.90;99.90;;;;;;5093061;28;20046;-79
2021/10/25 00:27:12;;;;;;;5.80;3.75;;;4.90;99.90;;;;;;5055824;28;20039;-84
2021/10/25 00:29:39;;;;;;;4.67;2.93;;;4.90;99.90;;;;;;5093979;28;20055;-78
2021/10/25 00:32:06;;;;;;;6.67;3.07;;;4.80;99.90;;;;;;5042489;28;20040;-78
2021/10/25 00:34:33;;;;;;;4.38;2.50;;;4.80;99.90;;;;;;5075379;27;20031;-77
2021/10/25 00:37:02;;;;;;;3.70;2.80;;;4.80;99.90;;;;;;5026718;27;20129;-78
2021/10/25 00:39:31;;;;;;;6.33;3.57;;;4.80;99.90;;;;;;5062410;27;20047;-80
2021/10/25 00:41:58;;;;;;;6.45;3.88;;;4.70;99.90;;;;;;5078261;27;20039;-79
2021/10/25 00:44:28;;;;;;;7.47;4.53;;;4.70;99.90;;;;;;5093524;27;20044;-84
2021/10/25 00:46:54;;;;;;;7.55;4.13;;;4.80;99.90;;;;;;5081042;27;20028;-80
2021/10/25 00:49:21;;;;;;;4.93;3.33;;;4.70;99.90;;;;;;5089661;27;20468;-78
2021/10/25 00:51:49;;;;;;;5.20;3.50;;;4.70;99.90;;;;;;5060917;27;20031;-82
2021/10/25 00:54:16;;;;;;;4.37;3.00;;;4.70;99.90;;;;;;5061264;27;20050;-79
2021/10/25 00:56:44;;;;;;;5.63;3.83;;;4.70;99.90;;;;;;5083633;27;20039;-80
2021/10/25 00:59:11;;;;;;;4.57;3.00;;;4.70;99.90;;;;;;5065279;27;21296;-79
2021/10/25 01:01:39;;;;;;;5.43;3.13;;;4.70;99.90;;;;;;5086292;27;20046;-79
2021/10/25 01:04:06;;;;;;;4.27;2.93;;;4.60;99.90;;;;;;5081014;27;20034;-79
2021/10/25 01:06:33;;;;;;;4.22;2.90;;;4.60;99.90;;;;;;5061358;27;20035;-79
2021/10/25 01:09:01;;;;;;;4.70;3.20;;;4.60;99.90;;;;;;5077594;27;20063;-80
2021/10/25 01:11:28;;;;;;;6.10;3.73;;;4.60;99.90;;;;;;5064124;28;20571;-80
2021/10/25 01:13:54;;;;;;;3.83;2.53;;;4.60;99.90;;;;;;5073509;28;20039;-79
2021/10/25 01:16:21;;;;;;;4.75;3.00;;;4.60;99.90;;;;;;5075321;27;20039;-79
2021/10/25 01:18:49;;;;;;;5.07;3.47;;;4.60;99.90;;;;;;5075363;27;20726;-80
2021/10/25 01:21:16;;;;;;;4.32;2.83;;;4.60;99.90;;;;;;5077817;28;20031;-80
2021/10/25 01:23:42;;;;;;;3.50;2.22;;;4.60;99.90;;;;;;5051406;28;20032;-80
2021/10/25 01:26:13;;;;;;;5.37;2.90;;;4.70;99.90;;;;;;5058055;27;20043;-78
2021/10/25 01:28:41;;;;;;;4.18;2.50;;;4.70;99.90;;;;;;5074323;28;20384;-79
2021/10/25 01:31:07;;;;;;;4.78;3.50;;;4.70;99.90;;;;;;5077601;27;20032;-79
2021/10/25 01:33:35;;;;;;;4.37;2.87;;;4.70;99.90;;;;;;5059790;28;20031;-79
2021/10/25 01:36:03;;;;;;;5.82;3.13;;;4.60;99.90;;;;;;5052753;28;20472;-80
2021/10/25 01:38:30;;;;;;;5.17;3.00;;;4.70;99.90;;;;;;5042628;28;20490;-80
2021/10/25 01:40:58;;;;;;;5.20;3.45;;;4.70;99.90;;;;;;5071196;28;20036;-79
2021/10/25 01:43:24;;;;;;;8.43;4.00;;;4.70;99.90;;;;;;5059382;27;20038;-79
2021/10/25 01:45:51;;;;;;;7.53;4.07;;;4.70;99.90;;;;;;5089106;27;20038;-80
2021/10/25 01:48:18;;;;;;;5.47;3.80;;;4.80;99.90;;;;;;5056679;27;20795;-80
2021/10/25 01:50:44;;;;;;;5.72;3.30;;;4.80;99.90;;;;;;5050118;27;20044;-81
2021/10/25 01:53:11;;;;;;;4.33;2.97;;;4.80;99.90;;;;;;5060609;28;20044;-84
2021/10/25 01:55:47;;;;;;;4.70;3.08;;;4.80;99.90;;;;;;5060353;27;20031;-83
2021/10/25 01:58:14;;;;;;;4.70;2.70;;;4.80;99.90;;;;;;5060563;27;20051;-83
2021/10/25 02:00:41;;;;;;;4.20;2.78;;;4.80;99.90;;;;;;5045330;27;20440;-83
2021/10/25 02:03:07;;;;;;;4.43;2.83;;;4.80;99.90;;;;;;5043387;27;20042;-84
2021/10/25 02:05:44;;;;;;;4.40;2.83;;;4.80;99.90;;;;;;5062734;28;20042;-80
2021/10/25 02:08:12;;;;;;;6.00;3.28;;;4.90;99.90;;;;;;5044457;28;20052;-85
2021/10/25 02:11:01;;;;;;;4.13;3.08;;;4.90;99.90;;;;;;5072486;28;20031;-86
2021/10/25 02:13:31;;;;;;;4.87;3.50;;;5.00;99.90;;;;;;5056346;28;20046;-82
2021/10/25 02:16:02;;;;;;;5.67;4.23;;;5.20;99.90;;;;;;5077116;28;20039;-83
2021/10/25 02:18:29;;;;;;;5.77;3.83;;;5.30;99.90;;;;;;5057401;28;20046;-83
2021/10/25 02:20:56;;;;;;;6.55;4.60;;;5.50;99.90;;;;;;5078249;28;20046;-84
2021/10/25 02:23:23;;;;;;;7.85;5.05;;;5.60;99.90;;;;;;5091009;28;20031;-83
2021/10/25 02:25:54;;;;;;;9.52;5.97;;;5.70;99.90;;;;;;5063707;28;20719;-85
2021/10/25 02:28:22;;;;;;;7.72;4.78;;;5.80;99.90;;;;;;5042141;28;20044;-84
2021/10/25 02:30:54;;;;;;;8.85;4.88;;;5.90;99.90;;;;;;5092201;27;20035;-84
2021/10/25 02:33:22;;;;;;;6.85;4.68;;;6.00;99.90;;;;;;5082074;27;20027;-85
2021/10/25 02:35:52;;;;;;;7.50;5.57;;;6.00;99.90;;;;;;5095000;27;20039;-83
2021/10/25 02:38:21;;;;;;;9.38;4.95;;;6.10;99.90;;;;;;5079367;27;20050;-88
2021/10/25 02:40:53;;;;;;;;;;;6.20;99.90;;;;;;5094923;28;20035;-84
2021/10/25 02:43:21;;;;;;;5.15;3.85;;;6.30;99.90;;;;;;5077895;28;19908;-85
2021/10/25 02:45:48;;;;;;;6.55;4.55;;;6.30;99.90;;;;;;5079056;27;20042;-84
2021/10/25 02:48:17;;;;;;;5.77;4.43;;;6.30;99.90;;;;;;5076646;27;20036;-84
2021/10/25 02:50:43;;;;;;;6.95;4.15;;;6.40;99.90;;;;;;5092409;27;20106;-80
2021/10/25 02:53:11;;;;;;;5.63;4.18;;;6.50;99.90;;;;;;5075616;27;20035;-82
2021/10/25 02:55:38;;;;;;;8.18;5.13;;;6.50;99.90;;;;;;5071027;27;20858;-81
2021/10/25 02:58:05;;;;;;;9.50;4.85;;;6.60;99.90;;;;;;5074870;28;20032;-82
2021/10/25 03:00:33;;;;;;;8.13;5.65;;;6.60;99.90;;;;;;5075629;28;20042;-81
2021/10/25 03:03:04;;;;;;;9.85;6.13;;;6.70;99.90;;;;;;5080303;27;20632;-82
2021/10/25 03:05:31;;;;;;;9.35;6.10;;;6.70;99.90;;;;;;5077736;27;20035;-81
2021/10/25 03:07:58;;;;;;;8.80;5.38;;;6.70;99.90;;;;;;5084959;28;20501;-81
2021/10/25 03:10:24;;;;;;;7.82;5.68;;;6.80;99.90;;;;;;5086179;28;20039;-82
2021/10/25 03:12:51;;;;;;;6.97;4.85;;;6.80;99.90;;;;;;5078329;28;20040;-82
2021/10/25 03:15:17;;;;;;;8.98;4.75;;;6.90;99.90;;;;;;5057289;28;20392;-82
2021/10/25 03:17:45;;;;;;;7.00;5.15;;;6.90;99.90;;;;;;5070494;28;20036;-82
2021/10/25 03:20:23;;;;;;;6.47;5.18;;;6.90;99.90;;;;;;5091316;28;20032;-81
2021/10/25 03:22:49;;;;;;;8.57;5.18;;;7.00;99.90;;;;;;5074436;28;20027;-84
2021/10/25 03:25:19;;;;;;;8.48;5.40;;;7.10;99.90;;;;;;5091196;28;20028;-85
2021/10/25 03:27:47;;;;;;;7.05;5.00;;;7.10;99.90;;;;;;5074344;28;20036;-81
2021/10/25 03:30:14;;;;;;;6.68;5.45;;;7.10;99.90;;;;;;5087152;28;20035;-81
2021/10/25 03:32:44;;;;;;;8.75;5.90;;;7.10;99.90;;;;;;5080181;28;20046;-82
2021/10/25 03:35:43;;;;;;;8.32;5.93;;;7.10;99.90;;;;;;5075668;28;20797;-82
2021/10/25 03:38:13;;;;;;;6.88;5.32;;;7.20;99.90;;;;;;5073366;28;20054;-81
2021/10/25 03:40:44;;;;;;;6.97;4.78;;;7.20;99.90;;;;;;5090488;28;20042;-82
2021/10/25 03:43:10;;;;;;;8.82;5.22;;;7.30;99.90;;;;;;5087627;28;20035;-82
2021/10/25 03:45:42;;;;;;;6.72;5.00;;;7.30;99.90;;;;;;5060933;28;20039;-82
2021/10/25 03:50:42;;;;;;;8.88;5.78;;;7.40;99.90;;;;;;5090858;28;20032;-83
2021/10/25 03:56:03;;;;;;;7.43;5.32;;;7.40;99.90;;;;;;5106537;28;20020;-82
2021/10/25 04:28:39;;;;;;;6.28;4.43;;;7.80;99.90;;;;;;5095327;28;20935;-82
2021/10/25 04:31:07;;;;;;;6.47;4.22;;;7.90;99.90;;;;;;5077602;28;20075;-82
2021/10/25 04:33:42;;;;;;;5.90;3.55;;;7.90;99.90;;;;;;5093661;28;20094;-82
2021/10/25 04:36:31;;;;;;;5.30;3.47;;;8.00;99.90;;;;;;5060799;28;20035;-81
2021/10/25 04:39:09;;;;;;;6.47;3.97;;;8.00;99.90;;;;;;5095404;28;20031;-82
2021/10/25 04:41:40;;;;;;;7.15;4.07;;;8.10;99.90;;;;;;5072606;28;20043;-85
2021/10/25 04:44:07;;;;;;;6.32;3.60;;;8.10;99.90;;;;;;5086103;28;20043;-86
2021/10/25 04:46:33;;;;;;;5.90;3.60;;;8.10;99.90;;;;;;5079662;28;20129;-85
2021/10/25 04:49:00;;;;;;;7.05;4.03;;;8.10;99.90;;;;;;5093816;28;20534;-82
2021/10/25 04:51:40;;;;;;;6.15;4.63;;;8.10;99.90;;;;;;5065960;28;20042;-85
2021/10/25 04:54:22;;;;;;;4.90;4.20;;;8.10;99.90;;;;;;5079779;28;20032;-85
2021/10/25 04:56:52;;;;;;;7.25;4.40;;;8.20;99.90;;;;;;5075188;28;20043;-85
2021/10/25 04:59:19;;;;;;;7.38;5.25;;;8.20;99.90;;;;;;5058505;28;20023;-83
2021/10/25 05:01:46;;;;;;;7.35;5.68;;;8.20;99.90;;;;;;5062439;28;20036;-83
2021/10/25 05:04:12;;;;;;;6.75;4.60;;;8.20;99.90;;;;;;5095085;28;20039;-85
2021/10/25 05:06:39;;;;;;;7.47;4.85;;;8.20;99.90;;;;;;5078872;28;20471;-85
2021/10/25 05:09:08;;;;;;;5.38;3.70;;;8.30;99.90;;;;;;5078107;28;20047;-85
2021/10/25 05:11:35;;;;;;;5.82;4.32;;;8.30;99.90;;;;;;5078631;28;20031;-85
2021/10/25 05:14:02;;;;;;;5.18;4.45;;;8.30;99.90;;;;;;5078851;28;20043;-85
2021/10/25 05:16:30;;;;;;;9.88;5.28;;;8.30;99.90;;;;;;5043481;28;20040;-85
2021/10/25 05:19:22;;;;;;;5.70;4.10;;;8.30;99.90;;;;;;5087704;28;20388;-85
2021/10/25 05:21:58;;;;;;;7.07;3.90;;;8.30;99.90;;;;;;5095161;28;20035;-85
2021/10/25 05:24:25;;;;;;;8.32;4.82;;;8.30;99.90;;;;;;5093648;28;20028;-85
2021/10/25 05:26:54;;;;;;;7.80;5.78;;;8.30;99.90;;;;;;5060239;28;20032;-86
2021/10/25 05:29:20;;;;;;;7.65;4.47;;;8.30;99.90;;;;;;5059591;28;20476;-85
2021/10/25 05:31:47;;;;;;;6.40;5.13;;;8.30;99.90;;;;;;5109841;28;20497;-86
2021/10/25 05:34:14;;;;;;;7.15;5.20;;;8.30;99.90;;;;;;5035304;28;20089;-85
2021/10/25 05:36:43;;;;;;;5.65;4.40;;;8.30;99.90;;;;;;5024360;28;20044;-85
2021/10/25 05:39:10;;;;;;;6.43;3.97;;;8.30;99.90;;;;;;5021366;28;20175;-84
2021/10/25 05:41:39;;;;;;;5.32;4.50;;;8.30;99.90;;;;;;5030474;28;20536;-85
2021/10/25 05:44:06;;;;;;;7.57;4.72;;;8.40;99.90;;;;;;5036477;28;20171;-85
2021/10/25 05:46:33;;;;;;;5.95;3.85;;;8.40;99.90;;;;;;5036792;28;20028;-86
2021/10/25 05:49:00;;;;;;;6.55;4.32;;;8.50;99.90;;;;;;5035656;28;20041;-86
2021/10/25 05:51:27;;;;;;;6.60;4.40;;;8.50;99.90;;;;;;5057876;28;20489;-85
2021/10/25 05:53:54;;;;;;;5.45;3.92;;;8.60;99.90;;;;;;5020386;28;20044;-85
2021/10/25 05:56:26;;;;;;;7.60;5.13;;;8.60;99.90;;;;;;5035712;28;20049;-82
2021/10/25 05:58:53;;;;;;;6.50;4.18;;;8.60;99.90;;;;;;5000698;28;20036;-82
2021/10/25 06:01:24;;;;;;;6.25;3.95;;;8.70;99.90;;;;;;5013174;28;20032;-82
2021/10/25 06:04:13;;;;;;;5.13;3.92;;;8.70;99.90;;;;;;5045491;28;20049;-78
2021/10/25 06:06:48;;;;;;;;;;;8.70;99.90;;;;;;5074189;28;20040;-82
2021/10/25 06:09:21;;;;;;;4.25;2.83;;;8.70;99.90;;;;;;5057717;28;19931;-86
2021/10/25 06:11:49;;;;;;;5.30;2.92;;;8.80;99.90;;;;;;5073654;28;20040;-86
2021/10/25 06:14:25;;;;;;;7.43;3.28;;;8.80;99.90;;;;;;5041977;28;20050;-82
2021/10/25 06:17:08;;;;;;;5.85;3.50;;;8.80;99.90;;;;;;5058735;28;20039;-82
2021/10/25 06:19:35;;;;;;;5.75;2.90;;;8.80;99.90;;;;;;5031316;28;20038;-82
2021/10/25 06:22:03;;;;;;;5.43;3.47;;;8.90;99.90;;;;;;5076891;28;20040;-82
2021/10/25 06:24:31;;;;;;;4.45;2.83;;;8.90;99.90;;;;;;5040933;28;20043;-82
2021/10/25 06:27:08;;;;;;;4.07;2.72;;;8.90;99.90;;;;;;5043921;28;20039;-82
2021/10/25 06:29:34;;;;;;;6.75;2.78;;;8.90;99.90;;;;;;5071775;28;20039;-82
2021/10/25 06:32:01;;;;;;;5.45;3.42;;;9.00;99.90;;;;;;5039657;28;20043;-76
2021/10/25 06:34:38;;;;;;;6.38;3.67;;;9.00;99.90;;;;;;5089174;28;20035;-81
2021/10/25 06:37:48;;;;;;;5.95;3.50;;;9.00;99.90;;;;;;5085991;28;20145;-80
2021/10/25 06:40:17;;;;;;;6.93;4.20;;;9.00;99.90;;;;;;5055035;28;20047;-81
2021/10/25 06:42:44;;;;;;;4.80;3.65;;;9.10;99.90;;;;;;5052442;28;20047;-81
2021/10/25 06:45:17;;;;;;;5.95;4.00;;;9.10;99.90;;;;;;5072873;28;20689;-80
2021/10/25 06:47:46;;;;;;;6.13;3.78;;;9.10;99.90;;;;;;5075938;28;20039;-79
2021/10/25 06:50:16;;;;;;;4.75;3.10;;;9.10;99.90;;;;;;5074570;28;20028;-79
2021/10/25 06:53:01;;;;;;;6.43;3.72;;;9.20;99.90;;;;;;5072369;28;20360;-76
2021/10/25 06:55:29;;;;;;;7.57;3.70;;;9.20;99.90;;;;;;5074679;28;20023;-85
2021/10/25 06:58:02;;;;;;;5.32;2.90;;;9.30;99.90;;;;;;5054625;28;20369;-84
2021/10/25 07:00:32;;;;;;;6.47;4.32;;;9.30;99.90;;;;;;5054208;28;20032;-86
2021/10/25 07:02:59;;;;;;;7.80;3.75;;;9.40;99.90;;;;;;5072307;28;20036;-82
2021/10/25 07:05:32;;;;;;;7.50;3.97;;;9.40;99.90;;;;;;5087132;28;20036;-82
2021/10/25 07:08:01;;;;;;;7.82;5.65;;;9.50;99.90;;;;;;5046243;28;20400;-83
2021/10/25 07:10:29;;;;;;;9.48;5.15;;;9.50;99.90;;;;;;5045531;28;20033;-82
2021/10/25 07:12:57;;;;;;;5.32;3.75;;;9.60;99.90;;;;;;5062967;28;20036;-81
2021/10/25 07:15:26;;;;;;;8.75;4.28;;;9.70;99.90;;;;;;5073756;28;20024;-82
2021/10/25 08:10:41;;;;;;;7.47;6.05;;;10.60;99.90;;;;;;5083323;28;20024;-81
2021/10/25 08:13:17;;;;;;;6.43;4.83;;;10.60;99.90;;;;;;5053276;28;20047;-86
2021/10/25 08:15:47;;;;;;;8.27;4.82;;;10.60;99.90;;;;;;5088409;28;20802;-86
2021/10/25 08:20:55;;;;;;;6.53;4.07;;;10.60;99.90;;;;;;5070634;28;20032;-82
2021/10/25 08:23:22;;;;;;;6.10;4.20;;;10.70;99.90;;;;;;5079727;28;20039;-83
2021/10/25 08:25:53;;;;;;;6.28;4.30;;;10.70;99.90;;;;;;5082628;28;20057;-91
2021/10/25 08:28:22;;;;;;;6.15;4.18;;;10.80;99.90;;;;;;5050692;28;20032;-84
2021/10/25 08:30:52;;;;;;;5.57;3.63;;;10.80;99.90;;;;;;5061486;28;20031;-85
2021/10/25 08:41:26;;;;;;;8.10;3.50;;;11.00;99.90;;;;;;5073699;28;20491;-87
2021/10/25 08:43:54;;;;;;;8.30;4.25;;;11.10;99.90;;;;;;5064081;28;20480;-86
2021/10/25 08:46:22;;;;;;;5.93;4.00;;;11.10;99.90;;;;;;5046524;28;20040;-85
2021/10/25 08:48:49;;;;;;;7.30;3.97;;;11.10;99.90;;;;;;5049400;28;20033;-82
2021/10/25 08:51:23;;;;;;;7.40;4.13;;;11.00;99.90;;;;;;5044711;28;20047;-84
2021/10/25 08:53:51;;;;;;;7.88;4.20;;;11.10;99.90;;;;;;5039279;28;20037;-83
2021/10/25 08:56:18;;;;;;;7.38;3.40;;;11.20;99.90;;;;;;5053299;28;20021;-87
2021/10/25 08:59:05;;;;;;;10.80;4.10;;;11.20;99.90;;;;;;5012381;28;20055;-86
2021/10/25 09:01:33;;;;;;;5.93;3.97;;;11.20;99.90;;;;;;5039225;28;20148;-86
2021/10/25 09:04:22;;;;;;;7.70;4.25;;;11.20;99.90;;;;;;5023629;28;20053;-89
2021/10/25 09:06:58;;;;;;;10.05;4.03;;;11.20;99.90;;;;;;5015510;28;20047;-86
2021/10/25 09:09:31;;;;;;;4.85;3.67;;;11.30;99.90;;;;;;5029224;28;20033;-85
2021/10/25 09:12:05;;;;;;;7.65;4.05;;;11.30;99.90;;;;;;5014527;28;20140;-85
2021/10/25 09:14:43;;;;;;;7.00;4.63;;;11.30;99.90;;;;;;5039138;28;20416;-84
2021/10/25 09:17:10;;;;;;;8.70;5.00;;;11.40;99.90;;;;;;5019594;28;20044;-85
2021/10/25 09:19:52;;;;;;;11.77;6.30;;;11.40;99.90;;;;;;5052567;28;20412;-85
2021/10/25 09:22:22;;;;;;;11.07;5.85;;;11.40;99.90;;;;;;5030957;28;20060;-85
2021/10/25 09:24:57;;;;;;;7.40;4.82;;;11.50;99.90;;;;;;5070294;28;20040;-80
2021/10/25 09:27:36;;;;;;;8.45;4.20;;;11.50;99.90;;;;;;5045737;28;20040;-81
2021/10/25 09:30:16;;;;;;;5.93;3.70;;;11.60;99.90;;;;;;5041671;28;20058;-81
2021/10/25 09:32:44;;;;;;;5.90;4.43;;;11.60;99.90;;;;;;5061159;28;20035;-82
2021/10/25 09:35:42;;;;;;;7.05;3.67;;;11.60;99.90;;;;;;5053774;28;20407;-81
2021/10/25 09:38:25;;;;;;;7.90;4.15;;;11.60;99.90;;;;;;5084147;28;20040;-81
2021/10/25 09:49:10;;;;;;;4.65;3.60;;;11.60;99.90;;;;;;5081500;28;20468;-83
2021/10/25 09:51:56;;;;;;;4.43;3.05;;;11.60;99.90;;;;;;5044157;28;20337;-84
2021/10/25 09:54:26;;;;;;;5.75;4.00;;;11.70;99.90;;;;;;5057352;28;20032;-75
2021/10/25 09:57:07;;;;;;;6.43;4.22;;;11.70;99.90;;;;;;5057943;28;20373;-79
2021/10/25 09:59:56;;;;;;;6.22;4.20;;;11.70;99.90;;;;;;5075795;28;20681;-90
2021/10/25 10:02:49;;;;;;;4.78;4.18;;;11.80;99.90;;;;;;5095683;28;20046;-77
2021/10/25 10:05:25;;;;;;;8.93;5.80;;;11.90;99.90;;;;;;5063967;28;20028;-80
2021/10/25 10:07:54;;;;;;;8.55;5.57;;;11.90;99.90;;;;;;5042706;28;20063;-76
2021/10/25 10:10:29;;;;;;;9.52;6.18;;;12.00;99.90;;;;;;5070714;28;20020;-77
2021/10/25 10:13:04;;;;;;;9.50;6.30;;;12.00;99.90;;;;;;5073331;28;20027;-78
2021/10/25 10:15:35;;;;;;;8.65;5.55;;;12.00;99.90;;;;;;5042292;28;20031;-76
2021/10/25 10:18:17;;;;;;;9.20;4.78;;;12.00;99.90;;;;;;5077708;28;20040;-75
2021/10/25 10:21:07;;;;;;;5.57;3.85;;;12.00;99.90;;;;;;5107342;28;20024;-86
2021/10/25 10:23:37;;;;;;;5.68;3.58;;;11.90;99.90;;;;;;5051765;28;20040;-78
2021/10/25 10:26:11;;;;;;;6.38;3.30;;;11.90;99.90;;;;;;5051519;28;20036;-76
2021/10/25 10:28:47;;;;;;;6.85;3.78;;;12.00;99.90;;;;;;5030132;28;20122;-76
2021/10/25 10:31:26;;;;;;;5.93;3.40;;;12.10;99.90;;;;;;5049235;28;20068;-77
2021/10/25 10:34:17;;;;;;;10.05;4.80;;;12.10;99.90;;;;;;5007198;28;20043;-76
2021/10/25 10:36:52;;;;;;;8.05;5.95;;;12.20;99.90;;;;;;5042850;28;20051;-75
2021/10/25 10:39:25;;;;;;;9.35;7.63;;;12.20;99.90;;;;;;5029946;28;20040;-85
2021/10/25 10:42:02;;;;;;;9.25;6.95;;;12.30;99.90;;;;;;5049918;28;20055;-77
2021/10/25 10:44:58;;;;;;;7.45;5.05;;;12.30;99.90;;;;;;5053129;28;20033;-76
2021/10/25 10:50:22;;;;;;;6.72;3.63;;;12.30;99.90;;;;;;5016608;28;20059;-77
2021/10/25 10:53:10;;;;;;;;;;;12.40;99.90;;;;;;5029905;28;20493;-76
2021/10/25 10:55:41;;;;;;;8.95;5.57;;;12.60;99.90;;;;;;5032574;28;19939;-76
2021/10/25 11:00:45;;;;;;;9.23;5.70;;;12.70;99.90;;;;;;5060440;28;20051;-78
2021/10/25 11:03:22;;;;;;;6.28;4.28;;;12.80;99.90;;;;;;5070731;28;20485;-79
2021/10/25 11:05:55;;;;;;;8.77;4.35;;;12.80;99.90;;;;;;5096490;28;20051;-82
2021/10/25 11:08:24;;;;;;;5.43;3.13;;;12.80;99.90;;;;;;5096574;28;20062;-81
2021/10/25 11:11:13;;;;;;;4.50;2.72;;;12.80;99.90;;;;;;5062565;28;20035;-82
2021/10/25 11:13:49;;;;;;;5.53;3.10;;;12.90;99.90;;;;;;5084062;28;20028;-80
2021/10/25 11:18:54;;;;;;;9.10;4.22;;;13.00;99.90;;;;;;5108223;28;20040;-83
2021/10/25 11:21:30;;;;;;;5.30;3.40;;;13.00;99.90;;;;;;5072695;28;20038;-76
2021/10/25 11:24:00;;;;;;;6.45;3.22;;;13.10;99.90;;;;;;5075626;28;20032;-76
2021/10/25 11:26:30;;;;;;;6.65;4.70;;;13.20;99.90;;;;;;5074211;28;20894;-76
2021/10/25 11:29:05;;;;;;;12.88;5.53;;;13.30;99.90;;;;;;5093822;28;20038;-77
2021/10/25 11:31:43;;;;;;;5.90;3.45;;;13.30;99.90;;;;;;5073065;28;20028;-76
2021/10/25 11:34:19;;;;;;;4.15;3.13;;;13.30;99.90;;;;;;5087666;28;20032;-76
2021/10/25 11:37:12;;;;;;;9.43;3.92;;;13.30;99.90;;;;;;5091091;28;20036;-76
2021/10/25 11:42:22;;;;;;;6.50;3.88;;;13.30;99.90;;;;;;5091859;28;20300;-79
2021/10/25 11:44:51;;;;;;;10.15;4.07;;;13.30;99.90;;;;;;5078635;28;20042;-84
2021/10/25 11:47:23;;;;;;;8.80;3.75;;;13.40;99.90;;;;;;5110487;28;20031;-82
2021/10/25 11:49:50;;;;;;;4.18;2.63;;;13.40;99.90;;;;;;5097297;28;20046;-82
2021/10/25 11:52:17;;;;;;;6.55;3.78;;;13.40;99.90;;;;;;5099934;28;20036;-80
2021/10/25 11:54:50;;;;;;;5.75;3.13;;;13.50;99.90;;;;;;5071818;28;20046;-87
2021/10/25 11:57:18;;;;;;;37.28;23.10;;;13.50;99.90;;;;;;5084702;28;20028;-85
2021/10/25 12:00:04;;;;;;;23.23;13.80;;;13.60;99.90;;;;;;5069136;28;20230;-83
2021/10/25 12:02:39;;;;;;;21.58;12.90;;;13.70;99.90;;;;;;5100473;28;20035;-84
2021/10/25 12:05:08;;;;;;;15.43;11.23;;;13.70;99.90;;;;;;5070089;28;20049;-82
2021/10/25 12:07:47;;;;;;;14.05;7.28;;;13.70;99.90;;;;;;5095571;28;20035;-83
2021/10/25 12:10:15;;;;;;;12.23;7.53;;;13.60;99.90;;;;;;5100954;27;21469;-79
2021/10/25 12:12:42;;;;;;;8.25;4.97;;;13.70;99.90;;;;;;5084951;27;20031;-82
2021/10/25 12:15:16;;;;;;;6.45;3.60;;;13.80;99.90;;;;;;5070981;27;20039;-82
2021/10/25 12:17:43;;;;;;;4.50;2.80;;;14.00;99.90;;;;;;5086646;27;20123;-82
2021/10/25 12:20:12;;;;;;;7.82;4.43;;;14.20;99.90;;;;;;5104405;27;20042;-82
2021/10/25 12:22:42;;;;;;;6.03;3.38;;;14.50;99.90;;;;;;5101802;28;20702;-82
2021/10/25 12:25:09;;;;;;;5.60;3.58;;;14.60;99.90;;;;;;5082285;28;20046;-82
2021/10/25 12:27:41;;;;;;;5.35;3.35;;;14.70;99.90;;;;;;5105609;27;20031;-83
2021/10/25 12:30:13;;;;;;;5.82;3.22;;;14.70;99.90;;;;;;5098307;28;20038;-75
2021/10/25 12:33:11;;;;;;;6.00;3.72;;;14.60;99.90;;;;;;5091655;27;20113;-75
2021/10/25 12:35:43;;;;;;;4.60;2.97;;;14.80;99.90;;;;;;5066827;28;20047;-75
2021/10/25 12:38:17;;;;;;;6.70;3.67;;;14.90;99.90;;;;;;5073575;28;20023;-76
2021/10/25 12:41:01;;;;;;;5.53;3.22;;;14.90;99.90;;;;;;5074918;27;20032;-83
2021/10/25 12:43:39;;;;;;;10.32;3.55;;;14.90;99.90;;;;;;5081495;27;20027;-83
2021/10/25 12:46:10;;;;;;;3.20;2.42;;;15.00;99.90;;;;;;5087082;27;20023;-83
2021/10/25 12:48:45;;;;;;;6.93;2.75;;;15.00;99.90;;;;;;5102099;27;20038;-79
2021/10/25 12:51:16;;;;;;;4.93;3.67;;;15.00;99.90;;;;;;5099556;27;20376;-80
2021/10/25 12:53:45;;;;;;;5.32;2.92;;;15.10;99.90;;;;;;5118317;27;20031;-80
2021/10/25 12:56:12;;;;;;;6.22;3.30;;;15.00;99.90;;;;;;5119326;27;20028;-80
2021/10/25 12:58:40;;;;;;;4.05;2.72;;;15.10;99.90;;;;;;5104617;27;20116;-81
2021/10/25 13:01:14;;;;;;;7.78;3.03;;;15.10;99.90;;;;;;5118401;27;20035;-80
2021/10/25 13:03:47;;;;;;;5.47;2.97;;;15.00;99.90;;;;;;5102015;28;20479;-81
2021/10/25 13:06:14;;;;;;;7.22;3.67;;;15.00;99.90;;;;;;5094749;27;20491;-81
2021/10/25 13:08:40;;;;;;;6.97;3.55;;;15.00;99.90;;;;;;5120190;27;20063;-77
2021/10/25 13:11:09;;;;;;;3.78;2.50;;;14.90;99.90;;;;;;5061855;27;20054;-82
2021/10/25 13:13:36;;;;;;;3.95;2.53;;;14.90;99.90;;;;;;5097216;27;20031;-83
2021/10/25 13:16:05;;;;;;;5.90;2.75;;;14.90;99.90;;;;;;5096318;27;20023;-83
2021/10/25 13:18:32;;;;;;;3.72;2.42;;;14.90;99.90;;;;;;5060327;27;20042;-82
2021/10/25 13:20:58;;;;;;;6.32;2.67;;;14.90;99.90;;;;;;5085860;27;20050;-83
2021/10/25 13:23:25;;;;;;;5.35;3.22;;;14.90;99.90;;;;;;5094720;27;20027;-81
2021/10/25 13:25:51;;;;;;;8.07;2.97;;;14.90;99.90;;;;;;5046034;27;20039;-82
2021/10/25 13:28:18;;;;;;;5.60;3.25;;;14.90;99.90;;;;;;5090067;27;20042;-75
2021/10/25 13:30:45;;;;;;;5.07;3.58;;;14.90;99.90;;;;;;5079838;27;21261;-75
2021/10/25 13:33:11;;;;;;;6.45;3.53;;;14.80;99.90;;;;;;5117597;27;20027;-76
2021/10/25 13:35:38;;;;;;;6.55;4.00;;;14.80;99.90;;;;;;5088123;27;20039;-75
2021/10/25 13:38:05;;;;;;;6.03;3.38;;;14.90;99.90;;;;;;5073163;27;20031;-75
2021/10/25 13:40:33;;;;;;;6.00;3.47;;;14.90;99.90;;;;;;5089761;27;20044;-75
2021/10/25 13:43:01;;;;;;;7.18;3.83;;;15.00;99.90;;;;;;5065856;27;20039;-75
2021/10/25 13:45:29;;;;;;;4.60;3.10;;;14.90;99.90;;;;;;5081642;28;20027;-76
2021/10/25 13:47:55;;;;;;;6.15;3.33;;;14.90;99.90;;;;;;5070354;27;20039;-75
2021/10/25 13:50:23;;;;;;;5.82;3.13;;;14.80;99.90;;;;;;5067663;27;20043;-75
2021/10/25 13:52:50;;;;;;;6.82;3.80;;;14.80;99.90;;;;;;5050101;28;20031;-75
2021/10/25 13:55:17;;;;;;;4.78;3.65;;;14.80;99.90;;;;;;5084276;28;20385;-75
2021/10/25 13:57:45;;;;;;;4.40;3.13;;;14.80;99.90;;;;;;5069487;27;20034;-75
2021/10/25 14:00:13;;;;;;;6.97;5.30;;;14.90;99.90;;;;;;5068572;27;20032;-75
2021/10/25 14:02:42;;;;;;;11.07;8.40;;;14.90;99.90;;;;;;5087195;27;20051;-75
2021/10/25 14:05:17;;;;;;;8.20;5.05;;;14.90;99.90;;;;;;5086060;27;20035;-75
2021/10/25 14:07:43;;;;;;;8.43;5.38;;;15.00;99.90;;;;;;5061019;28;20048;-83
2021/10/25 14:12:40;;;;;;;3.85;2.72;;;15.10;99.90;;;;;;5078343;28;20396;-82
2021/10/25 14:17:41;;;;;;;7.78;4.15;;;15.30;99.90;;;;;;5100316;28;20036;-84
2021/10/25 14:20:08;;;;;;;13.10;9.45;;;15.30;99.90;;;;;;5065898;28;20032;-83
2021/10/25 14:22:35;;;;;;;15.18;10.23;;;15.30;99.90;;;;;;5083122;28;20506;-81
2021/10/25 14:25:01;;;;;;;7.72;6.03;;;15.30;99.90;;;;;;5076448;28;20046;-74
2021/10/25 14:27:28;;;;;;;6.35;5.00;;;15.30;99.90;;;;;;5087012;28;20046;-74
2021/10/25 14:29:56;;;;;;;5.90;3.83;;;15.20;99.90;;;;;;5086106;28;20035;-76
2021/10/25 14:32:22;;;;;;;4.38;3.45;;;15.10;99.90;;;;;;5082149;28;20035;-83
2021/10/25 14:34:49;;;;;;;4.75;3.17;;;15.00;99.90;;;;;;5100356;28;20038;-79
2021/10/25 14:37:16;;;;;;;4.88;3.35;;;15.00;99.90;;;;;;5046298;28;20043;-81
2021/10/25 14:39:45;;;;;;;5.13;3.42;;;14.90;99.90;;;;;;5092972;28;20040;-76
2021/10/25 14:42:26;;;;;;;9.05;5.93;;;14.80;99.90;;;;;;5067158;28;20039;-75
2021/10/25 14:45:17;;;;;;;9.20;5.30;;;14.80;99.90;;;;;;5063717;28;20047;-75
2021/10/25 14:55:44;;;;;;;4.55;2.78;;;14.60;99.90;;;;;;5065801;28;20047;-75
2021/10/25 14:58:11;;;;;;;6.32;3.75;;;14.60;99.90;;;;;;5051182;28;20032;-76
2021/10/25 15:00:41;;;;;;;6.97;3.83;;;14.60;99.90;;;;;;5086055;28;20047;-75
2021/10/25 15:03:07;;;;;;;5.45;3.35;;;14.60;99.90;;;;;;5081606;28;20031;-76
2021/10/25 15:05:37;;;;;;;6.22;3.15;;;14.50;99.90;;;;;;5053038;28;20035;-81
2021/10/25 15:08:04;;;;;;;5.18;2.95;;;14.60;99.90;;;;;;5082773;28;20059;-81
2021/10/25 15:10:30;;;;;;;7.65;2.60;;;14.60;99.90;;;;;;5092655;28;20392;-75
2021/10/25 15:12:56;;;;;;;4.82;2.60;;;14.60;99.90;;;;;;5052757;28;20061;-75
2021/10/25 15:15:24;;;;;;;5.85;2.92;;;14.60;99.90;;;;;;5071199;28;20492;-77
2021/10/25 15:17:52;;;;;;;3.95;2.72;;;14.60;99.90;;;;;;5070659;28;20552;-75
2021/10/25 15:20:19;;;;;;;6.45;3.22;;;14.60;99.90;;;;;;5085328;28;20035;-76
2021/10/25 15:22:46;;;;;;;7.13;3.22;;;14.60;99.90;;;;;;5068715;28;20043;-74
2021/10/25 15:25:16;;;;;;;6.15;3.35;;;14.50;99.90;;;;;;5066925;28;20051;-76